createdAt,value
2017-02-21T00:00:08.905Z,1005.99
2017-02-21T00:00:49.708Z,1006.03
2017-02-21T00:01:30.339Z,1005.96
2017-02-21T00:02:11.096Z,1006.01
2017-02-21T00:02:51.416Z,1006.02
2017-02-21T00:03:31.901Z,1006.02
2017-02-21T00:04:12.464Z,1005.93
2017-02-21T00:04:52.986Z,1005.96
2017-02-21T00:05:33.496Z,1006
2017-02-21T00:06:14.151Z,1005.93
2017-02-21T00:06:54.575Z,1005.89
2017-02-21T00:07:35.068Z,1005.91
2017-02-21T00:08:15.690Z,1005.86
2017-02-21T00:08:56.183Z,1005.92
2017-02-21T00:09:36.671Z,1005.91
2017-02-21T00:10:17.164Z,1005.86
2017-02-21T00:10:57.810Z,1005.87
2017-02-21T00:11:38.294Z,1005.87
2017-02-21T00:12:18.906Z,1005.9
2017-02-21T00:12:59.318Z,1005.92
2017-02-21T00:13:39.969Z,1005.96
2017-02-21T00:14:20.409Z,1005.96
2017-02-21T00:15:00.832Z,1005.89
2017-02-21T00:15:41.336Z,1005.96
2017-02-21T00:16:21.836Z,1005.93
2017-02-21T00:17:02.333Z,1005.91
2017-02-21T00:17:42.974Z,1005.9
2017-02-21T00:18:23.482Z,1005.95
2017-02-21T00:19:04.068Z,1005.91
2017-02-21T00:19:44.504Z,1005.87
2017-02-21T00:20:25.240Z,1005.85
2017-02-21T00:21:05.843Z,1005.91
2017-02-21T00:21:46.408Z,1005.93
2017-02-21T00:22:27.107Z,1005.98
2017-02-21T00:23:07.766Z,1005.96
2017-02-21T00:23:48.192Z,1005.97
2017-02-21T00:24:28.754Z,1005.95
2017-02-21T00:25:09.335Z,1005.93
2017-02-21T00:25:49.981Z,1005.99
2017-02-21T00:26:30.397Z,1005.94
2017-02-21T00:27:10.936Z,1005.91
2017-02-21T00:27:51.525Z,1005.93
2017-02-21T00:28:32.203Z,1005.89
2017-02-21T00:29:12.751Z,1005.94
2017-02-21T00:29:54.003Z,1005.9
2017-02-21T00:30:33.851Z,1005.85
2017-02-21T00:31:14.338Z,1005.81
2017-02-21T00:31:54.957Z,1005.79
2017-02-21T00:32:35.459Z,1005.73
2017-02-21T00:33:16.022Z,1005.73
2017-02-21T00:33:56.535Z,1005.68
2017-02-21T00:34:37.086Z,1005.72
2017-02-21T00:35:17.563Z,1005.68
2017-02-21T00:35:57.979Z,1005.65
2017-02-21T00:36:38.484Z,1005.63
2017-02-21T00:37:19.073Z,1005.66
2017-02-21T00:37:59.532Z,1005.64
2017-02-21T00:38:40.117Z,1005.63
2017-02-21T00:39:20.710Z,1005.62
2017-02-21T00:40:01.359Z,1005.63
2017-02-21T00:40:42.095Z,1005.66
2017-02-21T00:41:22.562Z,1005.72
2017-02-21T00:42:03.058Z,1005.66
2017-02-21T00:42:43.573Z,1005.63
2017-02-21T00:43:24.059Z,1005.68
2017-02-21T00:44:04.600Z,1005.64
2017-02-21T00:44:45.039Z,1005.68
2017-02-21T00:45:25.551Z,1005.68
2017-02-21T00:46:06.047Z,1005.61
2017-02-21T00:46:46.508Z,1005.62
2017-02-21T00:47:27.017Z,1005.53
2017-02-21T00:48:07.540Z,1005.57
2017-02-21T00:48:48.044Z,1005.53
2017-02-21T00:49:28.551Z,1005.46
2017-02-21T00:50:09.042Z,1005.4
2017-02-21T00:50:49.531Z,1005.43
2017-02-21T00:51:30.061Z,1005.43
2017-02-21T00:52:10.592Z,1005.39
2017-02-21T00:52:51.096Z,1005.42
2017-02-21T00:53:31.579Z,1005.43
2017-02-21T00:54:12.101Z,1005.42
2017-02-21T00:54:52.619Z,1005.43
2017-02-21T00:55:33.141Z,1005.37
2017-02-21T00:56:13.658Z,1005.39
2017-02-21T00:56:54.183Z,1005.39
2017-02-21T00:57:34.693Z,1005.4
2017-02-21T00:58:15.210Z,1005.37
2017-02-21T00:58:55.935Z,1005.36
2017-02-21T00:59:36.463Z,1005.38
2017-02-21T01:00:16.983Z,1005.44
2017-02-21T01:00:57.515Z,1005.38
2017-02-21T01:01:38.036Z,1005.45
2017-02-21T01:02:18.564Z,1005.36
2017-02-21T01:02:59.089Z,1005.37
2017-02-21T01:03:39.605Z,1005.41
2017-02-21T01:04:20.124Z,1005.39
2017-02-21T01:05:00.660Z,1005.46
2017-02-21T01:05:41.178Z,1005.4
2017-02-21T01:06:21.702Z,1005.44
2017-02-21T01:07:02.215Z,1005.37
2017-02-21T01:07:42.732Z,1005.37
2017-02-21T01:08:23.244Z,1005.34
2017-02-21T01:09:03.780Z,1005.3
2017-02-21T01:09:44.294Z,1005.32
2017-02-21T01:10:24.817Z,1005.33
2017-02-21T01:11:05.335Z,1005.29
2017-02-21T01:11:45.857Z,1005.33
2017-02-21T01:12:26.384Z,1005.25
2017-02-21T01:13:06.894Z,1005.24
2017-02-21T01:13:47.409Z,1005.23
2017-02-21T01:14:27.931Z,1005.24
2017-02-21T01:15:08.443Z,1005.28
2017-02-21T01:15:48.969Z,1005.27
2017-02-21T01:16:29.494Z,1005.3
2017-02-21T01:17:10.010Z,1005.27
2017-02-21T01:17:51.652Z,1005.26
2017-02-21T01:18:32.199Z,1005.24
2017-02-21T01:19:12.717Z,1005.25
2017-02-21T01:19:53.207Z,1005.22
2017-02-21T01:20:33.675Z,1005.22
2017-02-21T01:21:14.210Z,1005.17
2017-02-21T01:21:54.890Z,1005.21
2017-02-21T01:22:35.273Z,1005.17
2017-02-21T01:23:15.754Z,1005.13
2017-02-21T01:23:56.280Z,1005.14
2017-02-21T01:24:36.804Z,1005.11
2017-02-21T01:25:17.317Z,1005.13
2017-02-21T01:25:57.830Z,1005.11
2017-02-21T01:26:38.352Z,1005.1
2017-02-21T01:27:18.896Z,1005.09
2017-02-21T01:27:59.428Z,1005.01
2017-02-21T01:28:39.944Z,1005.06
2017-02-21T01:29:20.457Z,1005.03
2017-02-21T01:30:00.972Z,1005.04
2017-02-21T01:30:41.491Z,1005.13
2017-02-21T01:31:22.017Z,1005.06
2017-02-21T01:32:02.550Z,1005.01
2017-02-21T01:32:43.081Z,1005.11
2017-02-21T01:33:23.604Z,1005.04
2017-02-21T01:34:04.167Z,1005.12
2017-02-21T01:34:44.632Z,1005.05
2017-02-21T01:35:25.148Z,1005.08
2017-02-21T01:36:05.663Z,1005.08
2017-02-21T01:36:46.192Z,1005.05
2017-02-21T01:37:26.713Z,1005
2017-02-21T01:38:07.228Z,1005.05
2017-02-21T01:38:47.751Z,1005.05
2017-02-21T01:39:28.292Z,1004.95
2017-02-21T01:40:08.817Z,1004.97
2017-02-21T01:40:49.351Z,1004.93
2017-02-21T01:41:29.867Z,1004.94
2017-02-21T01:42:10.451Z,1004.93
2017-02-21T01:42:50.972Z,1004.88
2017-02-21T01:43:31.502Z,1004.93
2017-02-21T01:44:12.031Z,1004.88
2017-02-21T01:44:52.551Z,1004.86
2017-02-21T01:45:33.070Z,1004.86
2017-02-21T01:46:13.605Z,1004.9
2017-02-21T01:46:54.110Z,1004.97
2017-02-21T01:47:34.635Z,1004.89
2017-02-21T01:48:15.207Z,1004.95
2017-02-21T01:48:55.681Z,1004.91
2017-02-21T01:49:36.196Z,1004.89
2017-02-21T01:50:16.766Z,1004.9
2017-02-21T01:50:57.265Z,1004.92
2017-02-21T01:51:37.786Z,1004.9
2017-02-21T01:52:18.302Z,1004.86
2017-02-21T01:52:58.819Z,1004.93
2017-02-21T01:53:39.335Z,1004.84
2017-02-21T01:54:19.852Z,1004.84
2017-02-21T01:55:00.375Z,1004.79
2017-02-21T01:55:40.924Z,1004.76
2017-02-21T01:56:21.446Z,1004.8
2017-02-21T01:57:01.976Z,1004.85
2017-02-21T01:57:42.499Z,1004.84
2017-02-21T01:58:23.019Z,1004.86
2017-02-21T01:59:03.530Z,1004.8
2017-02-21T01:59:44.056Z,1004.82
2017-02-21T02:00:24.576Z,1004.85
2017-02-21T02:01:05.108Z,1004.91
2017-02-21T02:01:45.648Z,1004.85
2017-02-21T02:02:26.166Z,1004.86
2017-02-21T02:03:06.699Z,1004.77
2017-02-21T02:03:47.227Z,1004.81
2017-02-21T02:04:27.750Z,1004.8
2017-02-21T02:05:08.259Z,1004.82
2017-02-21T02:05:48.782Z,1004.82
2017-02-21T02:06:29.291Z,1004.85
2017-02-21T02:07:09.824Z,1004.87
2017-02-21T02:07:50.334Z,1004.88
2017-02-21T02:08:30.855Z,1004.9
2017-02-21T02:09:11.359Z,1004.9
2017-02-21T02:09:51.891Z,1004.86
2017-02-21T02:10:32.385Z,1004.89
2017-02-21T02:11:12.911Z,1004.93
2017-02-21T02:11:53.425Z,1004.86
2017-02-21T02:12:33.947Z,1004.86
2017-02-21T02:13:14.467Z,1004.87
2017-02-21T02:13:54.993Z,1004.87
2017-02-21T02:14:35.510Z,1004.87
2017-02-21T02:15:16.041Z,1004.85
2017-02-21T02:15:56.559Z,1004.88
2017-02-21T02:16:37.054Z,1004.86
2017-02-21T02:17:17.554Z,1004.85
2017-02-21T02:17:58.076Z,1004.9
2017-02-21T02:18:38.604Z,1004.9
2017-02-21T02:19:19.124Z,1004.83
2017-02-21T02:19:59.639Z,1004.88
2017-02-21T02:20:40.145Z,1004.79
2017-02-21T02:21:20.680Z,1004.8
2017-02-21T02:22:01.197Z,1004.81
2017-02-21T02:22:41.715Z,1004.81
2017-02-21T02:23:22.239Z,1004.79
2017-02-21T02:24:02.772Z,1004.81
2017-02-21T02:24:43.299Z,1004.85
2017-02-21T02:25:23.811Z,1004.82
2017-02-21T02:26:04.340Z,1004.76
2017-02-21T02:26:44.856Z,1004.8
2017-02-21T02:27:25.380Z,1004.82
2017-02-21T02:28:05.937Z,1004.83
2017-02-21T02:28:46.447Z,1004.84
2017-02-21T02:29:26.969Z,1004.79
2017-02-21T02:30:07.474Z,1004.77
2017-02-21T02:30:47.998Z,1004.71
2017-02-21T02:31:28.511Z,1004.74
2017-02-21T02:32:09.066Z,1004.72
2017-02-21T02:32:49.596Z,1004.71
2017-02-21T02:33:30.116Z,1004.72
2017-02-21T02:34:10.650Z,1004.65
2017-02-21T02:34:51.170Z,1004.69
2017-02-21T02:35:31.696Z,1004.66
2017-02-21T02:36:12.251Z,1004.67
2017-02-21T02:36:52.766Z,1004.63
2017-02-21T02:37:33.302Z,1004.65
2017-02-21T02:38:13.825Z,1004.69
2017-02-21T02:38:54.347Z,1004.66
2017-02-21T02:39:34.866Z,1004.71
2017-02-21T02:40:15.385Z,1004.67
2017-02-21T02:40:55.897Z,1004.7
2017-02-21T02:41:36.415Z,1004.68
2017-02-21T02:42:16.930Z,1004.69
2017-02-21T02:42:57.468Z,1004.62
2017-02-21T02:43:37.986Z,1004.69
2017-02-21T02:44:18.507Z,1004.6
2017-02-21T02:44:59.039Z,1004.63
2017-02-21T02:45:39.567Z,1004.6
2017-02-21T02:46:20.103Z,1004.6
2017-02-21T02:47:00.618Z,1004.64
2017-02-21T02:47:41.129Z,1004.61
2017-02-21T02:48:21.650Z,1004.56
2017-02-21T02:49:02.191Z,1004.51
2017-02-21T02:49:42.703Z,1004.52
2017-02-21T02:50:23.223Z,1004.55
2017-02-21T02:51:03.743Z,1004.57
2017-02-21T02:51:44.265Z,1004.57
2017-02-21T02:52:24.798Z,1004.59
2017-02-21T02:53:05.327Z,1004.6
2017-02-21T02:53:45.844Z,1004.65
2017-02-21T02:54:26.370Z,1004.57
2017-02-21T02:55:06.896Z,1004.56
2017-02-21T02:55:47.416Z,1004.57
2017-02-21T02:56:27.942Z,1004.53
2017-02-21T02:57:08.457Z,1004.58
2017-02-21T02:57:48.966Z,1004.57
2017-02-21T02:58:29.480Z,1004.54
2017-02-21T02:59:10.034Z,1004.53
2017-02-21T02:59:50.562Z,1004.5
2017-02-21T03:00:31.071Z,1004.5
2017-02-21T03:01:11.605Z,1004.51
2017-02-21T03:01:52.143Z,1004.46
2017-02-21T03:02:32.677Z,1004.49
2017-02-21T03:03:13.191Z,1004.51
2017-02-21T03:03:53.740Z,1004.49
2017-02-21T03:04:34.253Z,1004.5
2017-02-21T03:05:14.786Z,1004.52
2017-02-21T03:05:55.343Z,1004.46
2017-02-21T03:06:35.818Z,1004.46
2017-02-21T03:07:16.339Z,1004.46
2017-02-21T03:07:56.872Z,1004.44
2017-02-21T03:08:37.399Z,1004.48
2017-02-21T03:09:17.918Z,1004.44
2017-02-21T03:09:58.431Z,1004.4
2017-02-21T03:10:38.948Z,1004.36
2017-02-21T03:11:19.469Z,1004.38
2017-02-21T03:11:59.987Z,1004.35
2017-02-21T03:12:40.535Z,1004.34
2017-02-21T03:13:21.096Z,1004.32
2017-02-21T03:14:01.607Z,1004.3
2017-02-21T03:14:42.120Z,1004.26
2017-02-21T03:15:22.651Z,1004.28
2017-02-21T03:16:03.173Z,1004.26
2017-02-21T03:16:43.689Z,1004.3
2017-02-21T03:17:24.199Z,1004.28
2017-02-21T03:18:04.717Z,1004.22
2017-02-21T03:18:45.301Z,1004.31
2017-02-21T03:19:25.821Z,1004.26
2017-02-21T03:20:06.347Z,1004.27
2017-02-21T03:20:46.963Z,1004.28
2017-02-21T03:21:27.481Z,1004.23
2017-02-21T03:22:08.000Z,1004.18
2017-02-21T03:22:48.525Z,1004.24
2017-02-21T03:23:29.048Z,1004.2
2017-02-21T03:24:09.587Z,1004.21
2017-02-21T03:24:50.126Z,1004.23
2017-02-21T03:25:30.614Z,1004.22
2017-02-21T03:26:11.147Z,1004.2
2017-02-21T03:26:51.680Z,1004.21
2017-02-21T03:27:32.197Z,1004.18
2017-02-21T03:28:12.726Z,1004.21
2017-02-21T03:28:53.243Z,1004.24
2017-02-21T03:29:33.758Z,1004.19
2017-02-21T03:30:14.282Z,1004.17
2017-02-21T03:30:54.807Z,1004.07
2017-02-21T03:31:35.338Z,1004.17
2017-02-21T03:32:15.880Z,1004.16
2017-02-21T03:32:56.408Z,1004.14
2017-02-21T03:33:36.933Z,1004.09
2017-02-21T03:34:17.467Z,1004.12
2017-02-21T03:34:57.990Z,1004.06
2017-02-21T03:35:38.508Z,1004.09
2017-02-21T03:36:19.033Z,1004.11
2017-02-21T03:36:59.549Z,1004.09
2017-02-21T03:37:40.058Z,1004.12
2017-02-21T03:38:20.602Z,1004.11
2017-02-21T03:39:01.254Z,1004.09
2017-02-21T03:39:41.819Z,1004.04
2017-02-21T03:40:22.312Z,1004.04
2017-02-21T03:41:02.827Z,1004.13
2017-02-21T03:41:43.333Z,1004.12
2017-02-21T03:42:23.871Z,1004.08
2017-02-21T03:43:04.392Z,1004.05
2017-02-21T03:43:44.922Z,1004
2017-02-21T03:44:25.452Z,1004.06
2017-02-21T03:45:06.061Z,1004.08
2017-02-21T03:45:46.569Z,1004.03
2017-02-21T03:46:27.098Z,1004.06
2017-02-21T03:47:07.621Z,1004
2017-02-21T03:47:48.154Z,1004.01
2017-02-21T03:48:28.672Z,1004.01
2017-02-21T03:49:09.187Z,1004.02
2017-02-21T03:49:49.709Z,1004.01
2017-02-21T03:50:30.226Z,1004.05
2017-02-21T03:51:10.746Z,1004.02
2017-02-21T03:51:51.381Z,1004.04
2017-02-21T03:52:31.898Z,1003.99
2017-02-21T03:53:12.415Z,1004.05
2017-02-21T03:53:52.943Z,1003.96
2017-02-21T03:54:33.466Z,1004.02
2017-02-21T03:55:13.979Z,1004.02
2017-02-21T03:55:54.495Z,1003.95
2017-02-21T03:56:35.008Z,1004.03
2017-02-21T03:57:15.557Z,1004.01
2017-02-21T03:57:56.068Z,1004
2017-02-21T03:58:36.592Z,1003.95
2017-02-21T03:59:17.106Z,1004.02
2017-02-21T03:59:57.647Z,1003.95
2017-02-21T04:00:38.170Z,1003.97
2017-02-21T04:01:18.683Z,1003.98
2017-02-21T04:01:59.214Z,1003.93
2017-02-21T04:02:39.733Z,1003.95
2017-02-21T04:03:20.255Z,1003.98
2017-02-21T04:04:00.779Z,1003.92
2017-02-21T04:04:41.308Z,1003.9
2017-02-21T04:05:21.831Z,1003.81
2017-02-21T04:06:02.349Z,1003.85
2017-02-21T04:06:42.864Z,1003.79
2017-02-21T04:07:23.386Z,1003.85
2017-02-21T04:08:03.916Z,1003.85
2017-02-21T04:08:44.441Z,1003.84
2017-02-21T04:09:24.966Z,1003.83
2017-02-21T04:10:05.493Z,1003.87
2017-02-21T04:10:46.015Z,1003.85
2017-02-21T04:11:27.543Z,1003.87
2017-02-21T04:12:08.077Z,1003.86
2017-02-21T04:12:48.602Z,1003.83
2017-02-21T04:13:29.135Z,1003.79
2017-02-21T04:14:09.663Z,1003.9
2017-02-21T04:14:50.185Z,1003.82
2017-02-21T04:15:30.708Z,1003.83
2017-02-21T04:16:11.219Z,1003.83
2017-02-21T04:16:51.744Z,1003.81
2017-02-21T04:17:32.273Z,1003.79
2017-02-21T04:18:12.823Z,1003.75
2017-02-21T04:18:53.337Z,1003.74
2017-02-21T04:19:33.849Z,1003.74
2017-02-21T04:20:14.385Z,1003.72
2017-02-21T04:20:55.005Z,1003.77
2017-02-21T04:21:35.438Z,1003.71
2017-02-21T04:22:15.972Z,1003.75
2017-02-21T04:22:56.489Z,1003.68
2017-02-21T04:23:37.008Z,1003.71
2017-02-21T04:24:17.515Z,1003.73
2017-02-21T04:24:58.051Z,1003.73
2017-02-21T04:25:38.564Z,1003.72
2017-02-21T04:26:19.085Z,1003.75
2017-02-21T04:26:59.654Z,1003.7
2017-02-21T04:27:40.140Z,1003.73
2017-02-21T04:28:20.652Z,1003.69
2017-02-21T04:29:01.260Z,1003.75
2017-02-21T04:29:41.782Z,1003.72
2017-02-21T04:30:22.309Z,1003.77
2017-02-21T04:31:02.825Z,1003.69
2017-02-21T04:31:43.361Z,1003.69
2017-02-21T04:32:23.883Z,1003.7
2017-02-21T04:33:04.393Z,1003.69
2017-02-21T04:33:44.916Z,1003.67
2017-02-21T04:34:25.428Z,1003.69
2017-02-21T04:35:05.944Z,1003.82
2017-02-21T04:35:46.486Z,1003.72
2017-02-21T04:36:27.012Z,1003.67
2017-02-21T04:37:07.531Z,1003.75
2017-02-21T04:37:48.033Z,1003.74
2017-02-21T04:38:28.553Z,1003.71
2017-02-21T04:39:09.087Z,1003.7
2017-02-21T04:39:49.615Z,1003.69
2017-02-21T04:40:30.142Z,1003.64
2017-02-21T04:41:10.660Z,1003.68
2017-02-21T04:41:51.166Z,1003.66
2017-02-21T04:42:31.699Z,1003.67
2017-02-21T04:43:12.234Z,1003.6
2017-02-21T04:43:52.748Z,1003.65
2017-02-21T04:44:33.275Z,1003.62
2017-02-21T04:45:13.790Z,1003.64
2017-02-21T04:45:54.309Z,1003.66
2017-02-21T04:46:34.832Z,1003.63
2017-02-21T04:47:15.378Z,1003.69
2017-02-21T04:47:55.905Z,1003.72
2017-02-21T04:48:36.423Z,1003.66
2017-02-21T04:49:16.942Z,1003.71
2017-02-21T04:49:57.456Z,1003.69
2017-02-21T04:50:37.963Z,1003.64
2017-02-21T04:51:18.504Z,1003.76
2017-02-21T04:51:59.019Z,1003.69
2017-02-21T04:52:39.525Z,1003.76
2017-02-21T04:53:20.042Z,1003.78
2017-02-21T04:54:00.563Z,1003.74
2017-02-21T04:54:41.086Z,1003.71
2017-02-21T04:55:21.647Z,1003.68
2017-02-21T04:56:02.157Z,1003.69
2017-02-21T04:56:42.684Z,1003.7
2017-02-21T04:57:23.204Z,1003.58
2017-02-21T04:58:03.717Z,1003.67
2017-02-21T04:58:44.241Z,1003.58
2017-02-21T04:59:24.771Z,1003.54
2017-02-21T05:00:05.383Z,1003.54
2017-02-21T05:00:45.893Z,1003.57
2017-02-21T05:01:26.435Z,1003.58
2017-02-21T05:02:06.954Z,1003.58
2017-02-21T05:02:47.442Z,1003.46
2017-02-21T05:03:27.965Z,1003.5
2017-02-21T05:04:08.469Z,1003.59
2017-02-21T05:04:48.993Z,1003.53
2017-02-21T05:05:29.546Z,1003.56
2017-02-21T05:06:10.062Z,1003.52
2017-02-21T05:06:50.597Z,1003.53
2017-02-21T05:07:31.099Z,1003.48
2017-02-21T05:08:11.625Z,1003.5
2017-02-21T05:08:52.132Z,1003.48
2017-02-21T05:09:32.656Z,1003.49
2017-02-21T05:10:13.185Z,1003.42
2017-02-21T05:10:53.703Z,1003.38
2017-02-21T05:11:34.216Z,1003.44
2017-02-21T05:12:14.741Z,1003.39
2017-02-21T05:12:55.333Z,1003.39
2017-02-21T05:13:35.845Z,1003.4
2017-02-21T05:14:16.370Z,1003.38
2017-02-21T05:14:56.879Z,1003.38
2017-02-21T05:15:37.402Z,1003.41
2017-02-21T05:16:17.954Z,1003.41
2017-02-21T05:16:58.456Z,1003.37
2017-02-21T05:17:38.973Z,1003.38
2017-02-21T05:18:19.495Z,1003.37
2017-02-21T05:19:00.016Z,1003.4
2017-02-21T05:19:40.549Z,1003.38
2017-02-21T05:20:21.079Z,1003.39
2017-02-21T05:21:01.598Z,1003.39
2017-02-21T05:21:42.123Z,1003.39
2017-02-21T05:22:22.658Z,1003.36
2017-02-21T05:23:03.194Z,1003.33
2017-02-21T05:23:43.717Z,1003.36
2017-02-21T05:24:24.245Z,1003.4
2017-02-21T05:25:04.770Z,1003.33
2017-02-21T05:25:45.278Z,1003.39
2017-02-21T05:26:25.848Z,1003.41
2017-02-21T05:27:06.407Z,1003.3
2017-02-21T05:27:46.929Z,1003.39
2017-02-21T05:28:27.469Z,1003.39
2017-02-21T05:29:07.987Z,1003.39
2017-02-21T05:29:48.498Z,1003.42
2017-02-21T05:30:29.065Z,1003.44
2017-02-21T05:31:09.551Z,1003.26
2017-02-21T05:31:50.069Z,1003.25
2017-02-21T05:32:30.581Z,1003.32
2017-02-21T05:33:11.092Z,1003.34
2017-02-21T05:33:51.614Z,1003.31
2017-02-21T05:34:32.118Z,1003.32
2017-02-21T05:35:12.604Z,1003.29
2017-02-21T05:35:53.109Z,1003.26
2017-02-21T05:36:33.618Z,1003.29
2017-02-21T05:37:14.121Z,1003.31
2017-02-21T05:37:54.606Z,1003.23
2017-02-21T05:38:35.099Z,1003.22
2017-02-21T05:39:15.629Z,1003.21
2017-02-21T05:39:56.206Z,1003.24
2017-02-21T05:40:36.642Z,1003.19
2017-02-21T05:41:17.138Z,1003.22
2017-02-21T05:41:57.643Z,1003.26
2017-02-21T05:42:38.141Z,1003.22
2017-02-21T05:43:18.613Z,1003.19
2017-02-21T05:43:59.105Z,1003.23
2017-02-21T05:44:39.665Z,1003.21
2017-02-21T05:45:20.166Z,1003.18
2017-02-21T05:46:00.631Z,1003.12
2017-02-21T05:46:41.185Z,1003.17
2017-02-21T05:47:21.661Z,1003.25
2017-02-21T05:48:02.179Z,1003.13
2017-02-21T05:48:42.652Z,1003.29
2017-02-21T05:49:23.183Z,1003.27
2017-02-21T05:50:03.752Z,1003.25
2017-02-21T05:50:44.299Z,1003.27
2017-02-21T05:51:24.767Z,1003.3
2017-02-21T05:52:05.257Z,1003.32
2017-02-21T05:52:45.780Z,1003.34
2017-02-21T05:53:26.246Z,1003.29
2017-02-21T05:54:06.961Z,1003.33
2017-02-21T05:54:47.480Z,1003.37
2017-02-21T05:55:27.990Z,1003.4
2017-02-21T05:56:08.500Z,1003.35
2017-02-21T05:56:49.011Z,1003.42
2017-02-21T05:57:29.874Z,1003.43
2017-02-21T05:58:10.336Z,1003.47
2017-02-21T05:58:51.347Z,1003.45
2017-02-21T05:59:32.478Z,1003.48
2017-02-21T06:00:13.008Z,1003.36
2017-02-21T06:00:54.140Z,1003.44
2017-02-21T06:01:34.698Z,1003.42
2017-02-21T06:02:15.387Z,1003.53
2017-02-21T06:02:55.876Z,1003.48
2017-02-21T06:03:36.395Z,1003.57
2017-02-21T06:04:16.892Z,1003.5
2017-02-21T06:04:57.314Z,1003.56
2017-02-21T06:05:37.901Z,1003.52
2017-02-21T06:06:18.389Z,1003.52
2017-02-21T06:06:58.879Z,1003.55
2017-02-21T06:07:39.402Z,1003.54
2017-02-21T06:08:19.961Z,1003.54
2017-02-21T06:09:00.516Z,1003.51
2017-02-21T06:09:41.056Z,1003.58
2017-02-21T06:10:21.610Z,1003.56
2017-02-21T06:11:02.092Z,1003.63
2017-02-21T06:11:42.644Z,1003.64
2017-02-21T06:12:23.118Z,1003.64
2017-02-21T06:13:03.704Z,1003.7
2017-02-21T06:13:54.335Z,1003.67
2017-02-21T06:14:34.838Z,1003.67
2017-02-21T06:15:15.628Z,1003.7
2017-02-21T06:15:56.089Z,1003.67
2017-02-21T06:16:36.592Z,1003.66
2017-02-21T06:17:17.101Z,1003.73
2017-02-21T06:17:57.673Z,1003.78
2017-02-21T06:18:38.130Z,1003.75
2017-02-21T06:19:18.651Z,1003.73
2017-02-21T06:19:59.164Z,1003.77
2017-02-21T06:20:39.683Z,1003.79
2017-02-21T06:21:20.545Z,1003.86
2017-02-21T06:22:01.026Z,1003.86
2017-02-21T06:22:41.503Z,1003.84
2017-02-21T06:23:22.021Z,1003.86
2017-02-21T06:24:02.525Z,1003.87
2017-02-21T06:24:43.085Z,1003.89
2017-02-21T06:25:23.564Z,1003.86
2017-02-21T06:26:04.102Z,1003.86
2017-02-21T06:26:44.590Z,1003.8
2017-02-21T06:27:25.078Z,1003.89
2017-02-21T06:28:05.626Z,1003.94
2017-02-21T06:28:46.071Z,1003.86
2017-02-21T06:29:27.330Z,1003.84
2017-02-21T06:30:07.411Z,1003.86
2017-02-21T06:30:48.016Z,1003.92
2017-02-21T06:31:28.534Z,1003.92
2017-02-21T06:32:08.987Z,1003.94
2017-02-21T06:32:49.627Z,1003.97
2017-02-21T06:33:30.037Z,1003.92
2017-02-21T06:34:10.700Z,1003.92
2017-02-21T06:34:51.620Z,1003.97
2017-02-21T06:35:32.236Z,1003.91
2017-02-21T06:36:12.852Z,1003.96
2017-02-21T06:36:53.676Z,1003.98
2017-02-21T06:37:34.078Z,1004.02
2017-02-21T06:38:14.608Z,1003.99
2017-02-21T06:38:55.062Z,1004.03
2017-02-21T06:39:35.518Z,1003.97
2017-02-21T06:40:16.132Z,1003.97
2017-02-21T06:40:57.320Z,1003.97
2017-02-21T06:41:38.389Z,1004.03
2017-02-21T06:42:18.846Z,1004.01
2017-02-21T06:42:59.560Z,1004.04
2017-02-21T06:43:40.053Z,1004.1
2017-02-21T06:44:20.667Z,1004.05
2017-02-21T06:45:01.042Z,1004.06
2017-02-21T06:45:41.603Z,1004
2017-02-21T06:46:22.074Z,1004.07
2017-02-21T06:47:02.552Z,1004
2017-02-21T06:47:43.066Z,1004.03
2017-02-21T06:48:23.668Z,1004.04
2017-02-21T06:49:04.182Z,1004.02
2017-02-21T06:49:44.867Z,1004.05
2017-02-21T06:50:25.334Z,1004.08
2017-02-21T06:51:05.836Z,1004.13
2017-02-21T06:51:46.386Z,1004.05
2017-02-21T06:52:27.107Z,1004.04
2017-02-21T06:53:07.921Z,1004.07
2017-02-21T06:53:48.521Z,1004.07
2017-02-21T06:54:28.968Z,1004.09
2017-02-21T06:55:09.448Z,1004.1
2017-02-21T06:55:49.919Z,1004.14
2017-02-21T06:56:30.496Z,1004.12
2017-02-21T06:57:10.892Z,1004.08
2017-02-21T06:57:51.430Z,1004.09
2017-02-21T06:58:31.942Z,1004.13
2017-02-21T06:59:12.419Z,1004.04
2017-02-21T06:59:52.965Z,1004.1
2017-02-21T07:00:33.536Z,1004.07
2017-02-21T07:01:14.029Z,1004.03
2017-02-21T07:01:54.629Z,1004.09
2017-02-21T07:02:35.128Z,1004.1
2017-02-21T07:03:15.613Z,1004.03
2017-02-21T07:03:56.123Z,1004.03
2017-02-21T07:04:36.616Z,1004.09
2017-02-21T07:05:17.147Z,1004.12
2017-02-21T07:05:57.605Z,1004.1
2017-02-21T07:06:38.148Z,1004.16
2017-02-21T07:07:18.656Z,1004.26
2017-02-21T07:07:59.209Z,1004.24
2017-02-21T07:08:39.677Z,1004.24
2017-02-21T07:09:20.151Z,1004.19
2017-02-21T07:10:00.679Z,1004.21
2017-02-21T07:10:41.284Z,1004.2
2017-02-21T07:11:21.783Z,1004.13
2017-02-21T07:12:02.331Z,1004.15
2017-02-21T07:12:42.826Z,1004.15
2017-02-21T07:13:23.311Z,1004.13
2017-02-21T07:14:03.797Z,1004.1
2017-02-21T07:14:44.360Z,1004.08
2017-02-21T07:15:24.798Z,1004.08
2017-02-21T07:16:05.303Z,1004.11
2017-02-21T07:16:45.861Z,1004.16
2017-02-21T07:17:26.324Z,1004.21
2017-02-21T07:18:06.792Z,1004.21
2017-02-21T07:18:47.294Z,1004.27
2017-02-21T07:19:27.830Z,1004.35
2017-02-21T07:20:08.313Z,1004.33
2017-02-21T07:20:48.811Z,1004.36
2017-02-21T07:21:29.372Z,1004.33
2017-02-21T07:22:09.963Z,1004.28
2017-02-21T07:22:50.415Z,1004.27
2017-02-21T07:23:30.990Z,1004.34
2017-02-21T07:24:11.493Z,1004.37
2017-02-21T07:24:52.048Z,1004.41
2017-02-21T07:25:32.523Z,1004.33
2017-02-21T07:26:13.029Z,1004.37
2017-02-21T07:26:53.593Z,1004.39
2017-02-21T07:27:34.089Z,1004.37
2017-02-21T07:28:14.590Z,1004.35
2017-02-21T07:28:55.064Z,1004.28
2017-02-21T07:29:35.625Z,1004.3
2017-02-21T07:30:16.135Z,1004.36
2017-02-21T07:30:56.601Z,1004.38
2017-02-21T07:31:37.098Z,1004.42
2017-02-21T07:32:17.653Z,1004.4
2017-02-21T07:32:58.108Z,1004.37
2017-02-21T07:33:38.584Z,1004.36
2017-02-21T07:34:19.085Z,1004.41
2017-02-21T07:34:59.612Z,1004.34
2017-02-21T07:35:40.061Z,1004.34
2017-02-21T07:36:20.663Z,1004.4
2017-02-21T07:37:01.147Z,1004.37
2017-02-21T07:37:41.658Z,1004.36
2017-02-21T07:38:22.182Z,1004.38
2017-02-21T07:39:02.668Z,1004.34
2017-02-21T07:39:43.170Z,1004.35
2017-02-21T07:40:23.674Z,1004.28
2017-02-21T07:41:04.149Z,1004.31
2017-02-21T07:41:44.683Z,1004.25
2017-02-21T07:42:25.141Z,1004.24
2017-02-21T07:43:05.668Z,1004.3
2017-02-21T07:43:46.145Z,1004.15
2017-02-21T07:44:26.620Z,1004.22
2017-02-21T07:45:07.151Z,1004.21
2017-02-21T07:45:47.668Z,1004.23
2017-02-21T07:46:28.119Z,1004.25
2017-02-21T07:47:08.674Z,1004.2
2017-02-21T07:47:49.173Z,1004.27
2017-02-21T07:48:29.667Z,1004.21
2017-02-21T07:49:10.155Z,1004.18
2017-02-21T07:49:50.616Z,1004.13
2017-02-21T07:50:31.138Z,1004.16
2017-02-21T07:51:11.618Z,1004.15
2017-02-21T07:51:53.013Z,1004.12
2017-02-21T07:52:33.463Z,1004.15
2017-02-21T07:53:13.933Z,1004.11
2017-02-21T07:53:54.434Z,1004.13
2017-02-21T07:54:34.940Z,1004.08
2017-02-21T07:55:15.419Z,1004.04
2017-02-21T07:55:56.001Z,1004.05
2017-02-21T07:56:36.431Z,1004
2017-02-21T07:57:17.105Z,1004
2017-02-21T07:57:57.509Z,1003.98
2017-02-21T07:58:37.979Z,1004.04
2017-02-21T07:59:18.484Z,1003.99
2017-02-21T07:59:59.003Z,1004.07
2017-02-21T08:00:39.531Z,1004.04
2017-02-21T08:01:20.047Z,1004.1
2017-02-21T08:02:00.574Z,1004.04
2017-02-21T08:02:41.098Z,1004.12
2017-02-21T08:03:21.607Z,1004.03
2017-02-21T08:04:02.149Z,1004.05
2017-02-21T08:04:42.678Z,1004.06
2017-02-21T08:05:23.211Z,1004.03
2017-02-21T08:06:03.732Z,1004.1
2017-02-21T08:06:44.249Z,1004.1
2017-02-21T08:07:24.784Z,1004.06
2017-02-21T08:08:05.320Z,1004.05
2017-02-21T08:08:45.848Z,1004.1
2017-02-21T08:09:26.368Z,1004.03
2017-02-21T08:10:06.886Z,1004.06
2017-02-21T08:10:47.414Z,1004.04
2017-02-21T08:11:27.946Z,1004.11
2017-02-21T08:12:08.463Z,1004.11